Sven — DGGW — position and weather

sailwx.info

Track history (hours):
 
Tides and Currents Weather Stations Pressure Air Temp Water Temp Dewpoint Dewpoint Depression Visibility Wind Speed Wind Dir Waves Ship Positions

Sven

Last reported at 2018-Jul-21 06:30 UTC. Time now 2018-Jul-21 09:35 UTC.
Position N 39°22' W 000°14'.

Length 121 m; draft 5.1 m.

Type: Ship (hazmat cat A). MMSI: 211237900.

Date/timePositionNaut miles runAvg speedWind from/ knotsBaromVisibWave heightAir tempDewpointWater temp
2018-Jul-21 06:30N 39°22' W 000°14'510.9
2018-Jul-21 06:00N 39°26' W 000°19'1 1.2
2018-Jul-21 05:20N 39°26' W 000°20'0 0.0
2018-Jul-21 03:50N 39°26' W 000°20'0 0.0
2018-Jul-21 03:26N 39°26' W 000°20'0 0.0
2018-Jul-21 02:56N 39°26' W 000°20'0 0.0
2018-Jul-21 02:29N 39°26' W 000°20'0 0.0
2018-Jul-21 01:59N 39°26' W 000°20'0 0.0
2018-Jul-21 01:26N 39°26' W 000°20'0 0.0
2018-Jul-21 00:56N 39°26' W 000°20'0 0.0
2018-Jul-21 00:29N 39°26' W 000°20'0 0.0
2018-Jul-20 23:50N 39°26' W 000°20'0 0.0
2018-Jul-20 22:38N 39°26' W 000°20'0 0.0
2018-Jul-20 22:26N 39°26' W 000°20'0 0.0
2018-Jul-20 21:56N 39°26' W 000°20'0 0.0
2018-Jul-20 21:26N 39°26' W 000°20'0 0.0
2018-Jul-20 20:50N 39°26' W 000°20'0 0.0
2018-Jul-20 20:14N 39°26' W 000°20'0 0.0
2018-Jul-20 19:56N 39°26' W 000°20'0 0.0
2018-Jul-20 19:26N 39°26' W 000°20'0 0.0
2018-Jul-20 18:55N 39°26' W 000°20'0 0.0
2018-Jul-20 18:19N 39°26' W 000°20'0 0.0
2018-Jul-20 17:43N 39°26' W 000°20'0 0.0
2018-Jul-20 17:25N 39°26' W 000°20'0 0.0
2018-Jul-20 16:58N 39°26' W 000°20'0 0.0
2018-Jul-20 16:25N 39°26' W 000°20'0 0.0
2018-Jul-20 15:55N 39°26' W 000°20'0 0.0
2018-Jul-20 15:13N 39°26' W 000°20'0 0.0
2018-Jul-20 14:55N 39°26' W 000°20'0 0.0
2018-Jul-20 14:25N 39°26' W 000°20'0 0.0
2018-Jul-20 13:55N 39°26' W 000°20'0 0.0
2018-Jul-20 06:27N 39°26' W 000°20'3 6.7
2018-Jul-20 06:00N 39°25' W 000°16'1 0.0
2018-Jul-19 09:39N 39°24' W 000°16'1 7.5
2018-Jul-19 09:29N 39°25' W 000°17'2 4.5
2018-Jul-19 08:58N 39°26' W 000°19'0 0.0
2018-Jul-19 08:28N 39°26' W 000°19'0 0.0
2018-Jul-19 07:58N 39°26' W 000°19'0 0.0
2018-Jul-19 07:28N 39°26' W 000°19'0 0.0
2018-Jul-19 06:58N 39°26' W 000°19'0 0.0
2018-Jul-19 06:22N 39°26' W 000°19'0 0.0
2018-Jul-19 05:58N 39°26' W 000°19'0 0.0
2018-Jul-19 05:13N 39°26' W 000°19'0 0.0
2018-Jul-19 04:58N 39°26' W 000°19'0 0.0
2018-Jul-19 04:25N 39°26' W 000°19'0 0.0
2018-Jul-19 03:58N 39°26' W 000°19'0 0.0
2018-Jul-19 03:28N 39°26' W 000°19'0 0.0
2018-Jul-19 02:46N 39°26' W 000°19'0 0.0
2018-Jul-19 02:28N 39°26' W 000°19'0 0.0
2018-Jul-19 01:58N 39°26' W 000°19'0 0.0
2018-Jul-19 01:28N 39°26' W 000°19'0 0.0
2018-Jul-19 00:52N 39°26' W 000°19'0 0.0
2018-Jul-19 00:28N 39°26' W 000°19'0 0.1
2018-Jul-18 21:03N 39°26' W 000°19'0 4.1
2018-Jul-18 21:00N 39°26' W 000°19'3 0.8
2018-Jul-18 16:35N 39°23' W 000°16'0 0.0
2018-Jul-18 16:19N 39°23' W 000°16'2 0.2
2018-Jul-18 09:04N 39°22' W 000°15'43 2.8
2018-Jul-17 17:49N 38°50' E 000°21'310.0
2018-Jul-17 17:30N 38°48' E 000°23'610.2
2018-Jul-17 16:57N 38°43' E 000°27'610.1
2018-Jul-17 16:24N 38°38' E 000°24'410.2
2018-Jul-17 16:00N 38°34' E 000°21'510.0
2018-Jul-17 15:30N 38°30' E 000°18'10 9.8
2018-Jul-17 14:28N 38°22' E 000°11'5 9.6
2018-Jul-17 14:00N 38°18' E 000°08'5 9.5
2018-Jul-17 13:30N 38°14' E 000°05'510.1
2018-Jul-17 13:00N 38°10' E 000°01'610.6
2018-Jul-17 12:27N 38°05' W 000°04'612.3
2018-Jul-17 12:00N 38°01' W 000°08'612.3
2018-Jul-17 11:30N 37°56' W 000°12'612.0
2018-Jul-17 11:00N 37°51' W 000°16'611.8
2018-Jul-17 10:30N 37°46' W 000°20'612.0
2018-Jul-17 10:00N 37°41' W 000°24'612.1
2018-Jul-17 09:30N 37°36' W 000°29'712.2
2018-Jul-17 08:58N 37°31' W 000°35'612.5
2018-Jul-17 08:30N 37°30' W 000°42'712.9
2018-Jul-17 07:56N 37°31' W 000°51'8 1.3
2018-Jul-17 02:14N 37°36' W 000°58'0 0.0
2018-Jul-17 02:00N 37°36' W 000°58'0 0.0
2018-Jul-17 01:30N 37°36' W 000°58'0 0.0
2018-Jul-17 01:00N 37°36' W 000°58'0 0.0
2018-Jul-16 22:33N 37°36' W 000°58'0 0.0
2018-Jul-16 22:30N 37°36' W 000°58'0 0.0
2018-Jul-16 21:35N 37°36' W 000°58'0 0.0
2018-Jul-16 21:30N 37°36' W 000°58'112 5.7
2018-Jul-16 01:58N 39°22' W 000°12'5 9.3
2018-Jul-16 01:28N 39°25' W 000°17'2 0.2
2018-Jul-15 14:05N 39°26' W 000°19'0 1.0
2018-Jul-15 13:59N 39°26' W 000°19'0 0.0
2018-Jul-15 13:29N 39°26' W 000°19'0 0.0
2018-Jul-15 12:59N 39°26' W 000°19'0 0.0
2018-Jul-15 12:29N 39°26' W 000°19'0 0.0
2018-Jul-15 11:56N 39°26' W 000°19'0 0.0
2018-Jul-15 11:26N 39°26' W 000°19'0 0.0
2018-Jul-15 10:56N 39°26' W 000°19'0 0.0
2018-Jul-15 10:29N 39°26' W 000°19'0 0.0
2018-Jul-15 09:59N 39°26' W 000°19'0 0.0
2018-Jul-15 09:29N 39°26' W 000°19'0 0.0
2018-Jul-15 08:14N 39°26' W 000°19'0 0.0
2018-Jul-15 07:56N 39°26' W 000°19'0 0.0
2018-Jul-15 07:26N 39°26' W 000°19'0 0.0
2018-Jul-15 06:56N 39°26' W 000°19'0 0.0
2018-Jul-15 00:14N 39°26' W 000°19'0 0.0
2018-Jul-14 23:50N 39°26' W 000°19'0 0.0
2018-Jul-14 23:26N 39°26' W 000°19'0 0.0
2018-Jul-14 22:50N 39°26' W 000°19'0 0.0
2018-Jul-14 21:38N 39°26' W 000°19'0 0.0
2018-Jul-14 21:20N 39°26' W 000°19'0 0.0
2018-Jul-14 20:58N 39°26' W 000°19'0 0.0
2018-Jul-14 20:25N 39°26' W 000°19'0 0.0
2018-Jul-14 19:37N 39°26' W 000°19'0 0.1
2018-Jul-14 19:25N 39°26' W 000°19'0 0.0
2018-Jul-14 18:59N 39°26' W 000°19'0 0.0
2018-Jul-14 18:30N 39°26' W 000°19'0 0.0
2018-Jul-14 18:00N 39°26' W 000°19'0 0.0
2018-Jul-14 17:29N 39°26' W 000°19'0 0.0
2018-Jul-14 17:00N 39°26' W 000°19'0 0.0
2018-Jul-14 16:30N 39°26' W 000°19'0 0.0
2018-Jul-14 16:00N 39°26' W 000°19'0 0.0
2018-Jul-14 15:30N 39°26' W 000°19'0 0.0
2018-Jul-14 15:00N 39°26' W 000°19'0 0.0
2018-Jul-14 14:00N 39°26' W 000°19'1 2.4
2018-Jul-14 13:30N 39°26' W 000°18'4 7.4
2018-Jul-14 13:00N 39°25' W 000°13'106 5.1
2018-Jul-13 16:14N 37°39' W 000°26'2 9.2
2018-Jul-13 16:00N 37°38' W 000°27'5 9.1
2018-Jul-13 15:30N 37°34' W 000°30'5 9.1
2018-Jul-13 14:56N 37°30' W 000°35'4 9.0
2018-Jul-13 14:27N 37°28' W 000°40'9 9.1
2018-Jul-13 13:30N 37°23' W 000°48'5 8.6
2018-Jul-13 12:57N 37°19' W 000°52'4 8.6
2018-Jul-13 12:30N 37°16' W 000°56'4 9.2
2018-Jul-13 12:00N 37°13' W 000°60'26 0.6
2018-Jul-11 20:10N 36°58' W 001°25'211.3
2018-Jul-11 20:00N 36°59' W 001°24'611.3
2018-Jul-11 19:30N 37°03' W 001°18'611.0
2018-Jul-11 18:56N 37°07' W 001°12'611.3
2018-Jul-11 18:26N 37°11' W 001°07'511.7
2018-Jul-11 18:00N 37°14' W 001°02'611.5
2018-Jul-11 17:30N 37°18' W 000°57'611.5
2018-Jul-11 17:00N 37°22' W 000°52'611.7
2018-Jul-11 16:30N 37°25' W 000°46'611.7
2018-Jul-11 16:00N 37°29' W 000°41'611.9
2018-Jul-11 15:30N 37°33' W 000°35'611.7
2018-Jul-11 14:59N 37°38' W 000°30'511.3
2018-Jul-11 14:30N 37°43' W 000°28'611.7
2018-Jul-11 14:00N 37°49' W 000°27'613.0
2018-Jul-11 13:30N 37°55' W 000°26'612.8
2018-Jul-11 13:00N 38°02' W 000°25'612.7
2018-Jul-11 12:30N 38°08' W 000°24'712.5
2018-Jul-11 11:58N 38°15' W 000°26'  
Track history (hours):
 
Tides and Currents Weather Stations Pressure Air Temp Water Temp Dewpoint Dewpoint Depression Visibility Wind Speed Wind Dir Waves Ship Positions

Sven

Last reported at 2018-Jul-21 06:30 UTC. Time now 2018-Jul-21 09:35 UTC.
Position N 39°22' W 000°14'.

Length 121 m; draft 5.1 m.

Type: Ship (hazmat cat A). MMSI: 211237900.

Date/timePositionNaut miles runAvg speedWind from/ knotsBaromVisibWave heightAir tempDewpointWater temp
2018-Jul-21 06:30N 39°22' W 000°14'510.9
2018-Jul-21 06:00N 39°26' W 000°19'1 1.2
2018-Jul-21 05:20N 39°26' W 000°20'0 0.0
2018-Jul-21 03:50N 39°26' W 000°20'0 0.0
2018-Jul-21 03:26N 39°26' W 000°20'0 0.0
2018-Jul-21 02:56N 39°26' W 000°20'0 0.0
2018-Jul-21 02:29N 39°26' W 000°20'0 0.0
2018-Jul-21 01:59N 39°26' W 000°20'0 0.0
2018-Jul-21 01:26N 39°26' W 000°20'0 0.0
2018-Jul-21 00:56N 39°26' W 000°20'0 0.0
2018-Jul-21 00:29N 39°26' W 000°20'0 0.0
2018-Jul-20 23:50N 39°26' W 000°20'0 0.0
2018-Jul-20 22:38N 39°26' W 000°20'0 0.0
2018-Jul-20 22:26N 39°26' W 000°20'0 0.0
2018-Jul-20 21:56N 39°26' W 000°20'0 0.0
2018-Jul-20 21:26N 39°26' W 000°20'0 0.0
2018-Jul-20 20:50N 39°26' W 000°20'0 0.0
2018-Jul-20 20:14N 39°26' W 000°20'0 0.0
2018-Jul-20 19:56N 39°26' W 000°20'0 0.0
2018-Jul-20 19:26N 39°26' W 000°20'0 0.0
2018-Jul-20 18:55N 39°26' W 000°20'0 0.0
2018-Jul-20 18:19N 39°26' W 000°20'0 0.0
2018-Jul-20 17:43N 39°26' W 000°20'0 0.0
2018-Jul-20 17:25N 39°26' W 000°20'0 0.0
2018-Jul-20 16:58N 39°26' W 000°20'0 0.0
2018-Jul-20 16:25N 39°26' W 000°20'0 0.0
2018-Jul-20 15:55N 39°26' W 000°20'0 0.0
2018-Jul-20 15:13N 39°26' W 000°20'0 0.0
2018-Jul-20 14:55N 39°26' W 000°20'0 0.0
2018-Jul-20 14:25N 39°26' W 000°20'0 0.0
2018-Jul-20 13:55N 39°26' W 000°20'0 0.0
2018-Jul-20 06:27N 39°26' W 000°20'3 6.7
2018-Jul-20 06:00N 39°25' W 000°16'1 0.0
2018-Jul-19 09:39N 39°24' W 000°16'1 7.5
2018-Jul-19 09:29N 39°25' W 000°17'2 4.5
2018-Jul-19 08:58N 39°26' W 000°19'0 0.0
2018-Jul-19 08:28N 39°26' W 000°19'0 0.0
2018-Jul-19 07:58N 39°26' W 000°19'0 0.0
2018-Jul-19 07:28N 39°26' W 000°19'0 0.0
2018-Jul-19 06:58N 39°26' W 000°19'0 0.0
2018-Jul-19 06:22N 39°26' W 000°19'0 0.0
2018-Jul-19 05:58N 39°26' W 000°19'0 0.0
2018-Jul-19 05:13N 39°26' W 000°19'0 0.0
2018-Jul-19 04:58N 39°26' W 000°19'0 0.0
2018-Jul-19 04:25N 39°26' W 000°19'0 0.0
2018-Jul-19 03:58N 39°26' W 000°19'0 0.0
2018-Jul-19 03:28N 39°26' W 000°19'0 0.0
2018-Jul-19 02:46N 39°26' W 000°19'0 0.0
2018-Jul-19 02:28N 39°26' W 000°19'0 0.0
2018-Jul-19 01:58N 39°26' W 000°19'0 0.0
2018-Jul-19 01:28N 39°26' W 000°19'0 0.0
2018-Jul-19 00:52N 39°26' W 000°19'0 0.0
2018-Jul-19 00:28N 39°26' W 000°19'0 0.1
2018-Jul-18 21:03N 39°26' W 000°19'0 4.1
2018-Jul-18 21:00N 39°26' W 000°19'3 0.8
2018-Jul-18 16:35N 39°23' W 000°16'0 0.0
2018-Jul-18 16:19N 39°23' W 000°16'2 0.2
2018-Jul-18 09:04N 39°22' W 000°15'43 2.8
2018-Jul-17 17:49N 38°50' E 000°21'310.0
2018-Jul-17 17:30N 38°48' E 000°23'610.2
2018-Jul-17 16:57N 38°43' E 000°27'610.1
2018-Jul-17 16:24N 38°38' E 000°24'410.2
2018-Jul-17 16:00N 38°34' E 000°21'510.0
2018-Jul-17 15:30N 38°30' E 000°18'10 9.8
2018-Jul-17 14:28N 38°22' E 000°11'5 9.6
2018-Jul-17 14:00N 38°18' E 000°08'5 9.5
2018-Jul-17 13:30N 38°14' E 000°05'510.1
2018-Jul-17 13:00N 38°10' E 000°01'610.6
2018-Jul-17 12:27N 38°05' W 000°04'612.3
2018-Jul-17 12:00N 38°01' W 000°08'612.3
2018-Jul-17 11:30N 37°56' W 000°12'612.0
2018-Jul-17 11:00N 37°51' W 000°16'611.8
2018-Jul-17 10:30N 37°46' W 000°20'612.0
2018-Jul-17 10:00N 37°41' W 000°24'612.1
2018-Jul-17 09:30N 37°36' W 000°29'712.2
2018-Jul-17 08:58N 37°31' W 000°35'612.5
2018-Jul-17 08:30N 37°30' W 000°42'712.9
2018-Jul-17 07:56N 37°31' W 000°51'8 1.3
2018-Jul-17 02:14N 37°36' W 000°58'0 0.0
2018-Jul-17 02:00N 37°36' W 000°58'0 0.0
2018-Jul-17 01:30N 37°36' W 000°58'0 0.0
2018-Jul-17 01:00N 37°36' W 000°58'0 0.0
2018-Jul-16 22:33N 37°36' W 000°58'0 0.0
2018-Jul-16 22:30N 37°36' W 000°58'0 0.0
2018-Jul-16 21:35N 37°36' W 000°58'0 0.0
2018-Jul-16 21:30N 37°36' W 000°58'112 5.7
2018-Jul-16 01:58N 39°22' W 000°12'5 9.3
2018-Jul-16 01:28N 39°25' W 000°17'2 0.2
2018-Jul-15 14:05N 39°26' W 000°19'0 1.0
2018-Jul-15 13:59N 39°26' W 000°19'0 0.0
2018-Jul-15 13:29N 39°26' W 000°19'0 0.0
2018-Jul-15 12:59N 39°26' W 000°19'0 0.0
2018-Jul-15 12:29N 39°26' W 000°19'0 0.0
2018-Jul-15 11:56N 39°26' W 000°19'0 0.0
2018-Jul-15 11:26N 39°26' W 000°19'0 0.0
2018-Jul-15 10:56N 39°26' W 000°19'0 0.0
2018-Jul-15 10:29N 39°26' W 000°19'0 0.0
2018-Jul-15 09:59N 39°26' W 000°19'0 0.0
2018-Jul-15 09:29N 39°26' W 000°19'0 0.0
2018-Jul-15 08:14N 39°26' W 000°19'0 0.0
2018-Jul-15 07:56N 39°26' W 000°19'0 0.0
2018-Jul-15 07:26N 39°26' W 000°19'0 0.0
2018-Jul-15 06:56N 39°26' W 000°19'0 0.0
2018-Jul-15 00:14N 39°26' W 000°19'0 0.0
2018-Jul-14 23:50N 39°26' W 000°19'0 0.0
2018-Jul-14 23:26N 39°26' W 000°19'0 0.0
2018-Jul-14 22:50N 39°26' W 000°19'0 0.0
2018-Jul-14 21:38N 39°26' W 000°19'0 0.0
2018-Jul-14 21:20N 39°26' W 000°19'0 0.0
2018-Jul-14 20:58N 39°26' W 000°19'0 0.0
2018-Jul-14 20:25N 39°26' W 000°19'0 0.0
2018-Jul-14 19:37N 39°26' W 000°19'0 0.1
2018-Jul-14 19:25N 39°26' W 000°19'0 0.0
2018-Jul-14 18:59N 39°26' W 000°19'0 0.0
2018-Jul-14 18:30N 39°26' W 000°19'0 0.0
2018-Jul-14 18:00N 39°26' W 000°19'0 0.0
2018-Jul-14 17:29N 39°26' W 000°19'0 0.0
2018-Jul-14 17:00N 39°26' W 000°19'0 0.0
2018-Jul-14 16:30N 39°26' W 000°19'0 0.0
2018-Jul-14 16:00N 39°26' W 000°19'0 0.0
2018-Jul-14 15:30N 39°26' W 000°19'0 0.0
2018-Jul-14 15:00N 39°26' W 000°19'0 0.0
2018-Jul-14 14:00N 39°26' W 000°19'1 2.4
2018-Jul-14 13:30N 39°26' W 000°18'4 7.4
2018-Jul-14 13:00N 39°25' W 000°13'106 5.1
2018-Jul-13 16:14N 37°39' W 000°26'2 9.2
2018-Jul-13 16:00N 37°38' W 000°27'5 9.1
2018-Jul-13 15:30N 37°34' W 000°30'5 9.1
2018-Jul-13 14:56N 37°30' W 000°35'4 9.0
2018-Jul-13 14:27N 37°28' W 000°40'9 9.1
2018-Jul-13 13:30N 37°23' W 000°48'5 8.6
2018-Jul-13 12:57N 37°19' W 000°52'4 8.6
2018-Jul-13 12:30N 37°16' W 000°56'4 9.2
2018-Jul-13 12:00N 37°13' W 000°60'26 0.6
2018-Jul-11 20:10N 36°58' W 001°25'211.3
2018-Jul-11 20:00N 36°59' W 001°24'611.3
2018-Jul-11 19:30N 37°03' W 001°18'611.0
2018-Jul-11 18:56N 37°07' W 001°12'611.3
2018-Jul-11 18:26N 37°11' W 001°07'511.7
2018-Jul-11 18:00N 37°14' W 001°02'611.5
2018-Jul-11 17:30N 37°18' W 000°57'611.5
2018-Jul-11 17:00N 37°22' W 000°52'611.7
2018-Jul-11 16:30N 37°25' W 000°46'611.7
2018-Jul-11 16:00N 37°29' W 000°41'611.9
2018-Jul-11 15:30N 37°33' W 000°35'611.7
2018-Jul-11 14:59N 37°38' W 000°30'511.3
2018-Jul-11 14:30N 37°43' W 000°28'611.7
2018-Jul-11 14:00N 37°49' W 000°27'613.0
2018-Jul-11 13:30N 37°55' W 000°26'612.8
2018-Jul-11 13:00N 38°02' W 000°25'612.7
2018-Jul-11 12:30N 38°08' W 000°24'712.5
2018-Jul-11 11:58N 38°15' W 000°26'  

Dump ship's entire track history